Time;durP1;ratioP1;P1;durP2;ratioP2;P2;SDS_P1;SDS_P2;PMS_P1;PMS_P2;Temp;Humidity;BMP_temperature;BMP_pressure;BME280_temperature;BME280_humidity;BME280_pressure;Samples;Min_cycle;Max_cycle;Signal;HPM_P1;HPM_P2
2022/01/24 10:44:09;;;;;;;41.13;23.00;;;5.40;99.90;;;;;;5142682;27;1313170;-63
2022/01/24 10:46:34;;;;;;;43.63;24.20;;;5.40;99.90;;;;;;5147141;27;20503;-61
2022/01/24 10:49:10;;;;;;;42.70;24.13;;;5.30;99.90;;;;;;5131886;28;20063;-62
2022/01/24 10:51:44;;;;;;;41.80;24.23;;;5.40;99.90;;;;;;5131812;28;20126;-62
2022/01/24 10:54:12;;;;;;;40.67;25.67;;;5.40;99.90;;;;;;5141505;27;20541;-63
2022/01/24 10:56:45;;;;;;;41.90;24.88;;;5.40;99.90;;;;;;5128186;27;20058;-62
2022/01/24 10:59:11;;;;;;;40.63;24.10;;;5.40;99.90;;;;;;5137017;27;20051;-62
2022/01/24 11:01:38;;;;;;;42.75;25.90;;;5.40;99.90;;;;;;5113564;28;20059;-61
2022/01/24 11:04:07;;;;;;;40.90;24.95;;;5.40;99.90;;;;;;5132059;28;20429;-62
2022/01/24 11:06:38;;;;;;;45.80;25.98;;;5.40;99.90;;;;;;5136381;27;20043;-62
2022/01/24 11:09:22;;;;;;;39.33;24.38;;;5.40;99.90;;;;;;5140230;27;20483;-62
2022/01/24 11:11:53;;;;;;;39.63;24.83;;;5.40;99.90;;;;;;5131769;28;20494;-61
2022/01/24 11:14:20;;;;;;;35.10;22.75;;;5.40;99.90;;;;;;5131283;28;20043;-62
2022/01/24 11:16:48;;;;;;;38.63;23.00;;;5.50;99.90;;;;;;5131105;27;20053;-61
2022/01/24 11:19:21;;;;;;;32.45;21.25;;;5.40;99.90;;;;;;5131533;28;20487;-62
2022/01/24 11:21:47;;;;;;;36.03;21.67;;;5.50;99.90;;;;;;5131121;27;20104;-62
2022/01/24 11:24:19;;;;;;;36.25;22.38;;;5.50;99.90;;;;;;5141966;27;20043;-61
2022/01/24 11:26:46;;;;;;;34.65;21.83;;;5.50;99.90;;;;;;5131081;27;20051;-62
2022/01/24 11:29:12;;;;;;;35.15;21.77;;;5.50;99.90;;;;;;5131111;28;20051;-61
2022/01/24 11:31:50;;;;;;;35.63;23.52;;;5.60;99.90;;;;;;5131097;28;20048;-62
2022/01/24 11:34:30;;;;;;;38.08;23.63;;;5.60;99.90;;;;;;5139644;27;20085;-62
2022/01/24 11:36:56;;;;;;;38.38;23.38;;;5.60;99.90;;;;;;5134349;27;20073;-62
2022/01/24 11:39:23;;;;;;;37.65;23.05;;;5.60;99.90;;;;;;5130690;28;20517;-62
2022/01/24 11:41:57;;;;;;;35.60;22.42;;;5.60;99.90;;;;;;5121359;27;20091;-61
2022/01/24 11:44:23;;;;;;;38.67;23.70;;;5.60;99.90;;;;;;5133131;27;20535;-61
2022/01/24 11:46:58;;;;;;;35.13;22.80;;;5.60;99.90;;;;;;5130807;27;20487;-61
2022/01/24 11:49:27;;;;;;;35.78;22.70;;;5.60;99.90;;;;;;5136060;27;20482;-62
2022/01/24 11:52:13;;;;;;;35.85;22.30;;;5.60;99.90;;;;;;5141115;27;20062;-62
2022/01/24 11:54:48;;;;;;;33.55;21.25;;;5.60;99.90;;;;;;5128010;27;20368;-63
2022/01/24 11:57:34;;;;;;;35.75;22.75;;;5.60;99.90;;;;;;5116781;28;20495;-62
2022/01/24 12:00:03;;;;;;;38.65;23.50;;;5.60;99.90;;;;;;5116970;28;20183;-62
2022/01/24 12:02:31;;;;;;;31.70;21.30;;;5.60;99.90;;;;;;5116828;28;20142;-62
2022/01/24 12:04:57;;;;;;;37.13;23.73;;;5.70;99.90;;;;;;5116861;28;20047;-62
2022/01/24 12:07:27;;;;;;;34.30;22.13;;;5.60;99.90;;;;;;5116739;28;20131;-62
2022/01/24 12:09:55;;;;;;;29.90;19.08;;;5.60;99.90;;;;;;5123460;27;20064;-63
2022/01/24 12:12:47;;;;;;;31.15;19.45;;;5.60;99.90;;;;;;5137210;27;20078;-62
2022/01/24 12:15:36;;;;;;;30.52;19.95;;;5.70;99.90;;;;;;5138082;27;20050;-62
2022/01/24 12:18:02;;;;;;;30.27;19.95;;;5.60;99.90;;;;;;5121554;27;20475;-62
2022/01/24 12:20:30;;;;;;;;;;;5.60;99.90;;;;;;5128311;27;20052;-62
2022/01/24 12:22:58;;;;;;;31.90;19.73;;;5.70;99.90;;;;;;5126808;27;19987;-62
2022/01/24 12:25:54;;;;;;;32.05;19.77;;;5.60;99.90;;;;;;5126930;27;20044;-62
2022/01/24 12:28:23;;;;;;;33.55;20.98;;;5.70;99.90;;;;;;5112147;27;20502;-63
2022/01/24 12:31:08;;;;;;;30.88;19.58;;;5.60;99.90;;;;;;5125636;27;20086;-64
2022/01/24 12:33:55;;;;;;;30.80;19.67;;;5.70;99.90;;;;;;5109266;27;20096;-62
2022/01/24 12:36:39;;;;;;;33.38;20.02;;;5.70;99.90;;;;;;5136050;27;20039;-62
2022/01/24 12:39:24;;;;;;;30.23;19.85;;;5.60;99.90;;;;;;5136733;27;20492;-62
2022/01/24 12:41:57;;;;;;;30.75;19.17;;;5.60;99.90;;;;;;5136618;27;20051;-62
2022/01/24 12:46:59;;;;;;;31.70;20.13;;;5.60;99.90;;;;;;5136940;27;20054;-62
2022/01/24 12:49:27;;;;;;;32.78;20.10;;;5.60;99.90;;;;;;5136611;27;20043;-62
2022/01/24 12:51:53;;;;;;;31.80;19.67;;;5.60;99.90;;;;;;5136478;27;20050;-62
2022/01/24 12:54:19;;;;;;;30.05;19.23;;;5.60;99.90;;;;;;5111375;27;20044;-63
2022/01/24 12:56:45;;;;;;;32.72;19.10;;;5.60;99.90;;;;;;5134649;27;20039;-63
2022/01/24 12:59:10;;;;;;;32.75;19.17;;;5.60;99.90;;;;;;5125947;27;20051;-63
2022/01/24 13:01:37;;;;;;;34.42;20.73;;;5.60;99.90;;;;;;5118308;27;20043;-62
2022/01/24 13:04:12;;;;;;;32.63;20.10;;;5.60;99.90;;;;;;5136187;27;20035;-62
2022/01/24 13:06:41;;;;;;;31.98;19.40;;;5.60;99.90;;;;;;5108537;27;20047;-62
2022/01/24 13:09:10;;;;;;;32.97;20.88;;;5.60;99.90;;;;;;5125560;27;20068;-62
2022/01/24 13:11:53;;;;;;;33.40;19.52;;;5.60;99.90;;;;;;5115924;28;20140;-61
2022/01/24 13:25:30;;;;;;;35.75;21.92;;;5.60;99.90;;;;;;5053244;28;20422;-62
2022/01/24 13:28:07;;;;;;;35.45;21.33;;;5.60;99.90;;;;;;5115201;28;20295;-62
2022/01/24 13:30:34;;;;;;;35.67;21.27;;;5.60;99.90;;;;;;5115586;28;20043;-62
2022/01/24 13:33:05;;;;;;;37.20;22.45;;;5.60;99.90;;;;;;5115408;28;20048;-62
2022/01/24 13:35:33;;;;;;;32.05;20.48;;;5.60;99.90;;;;;;5115481;28;20490;-62
2022/01/24 13:38:00;;;;;;;33.58;20.88;;;5.60;99.90;;;;;;5114953;28;20231;-62
2022/01/24 13:40:38;;;;;;;32.80;21.42;;;5.60;99.90;;;;;;5115021;28;20142;-61
2022/01/24 13:43:06;;;;;;;35.00;20.95;;;5.60;99.90;;;;;;5120248;27;20054;-62
2022/01/24 13:45:38;;;;;;;32.42;20.35;;;5.60;99.90;;;;;;5114850;28;20130;-62
2022/01/24 13:48:06;;;;;;;33.17;20.95;;;5.60;99.90;;;;;;5114827;28;20040;-62
2022/01/24 13:50:32;;;;;;;33.58;20.17;;;5.70;99.90;;;;;;5114824;28;20044;-62
2022/01/24 13:52:57;;;;;;;;;;;5.60;99.90;;;;;;5115035;28;20043;-62
2022/01/24 13:55:24;;;;;;;34.47;20.85;;;5.60;99.90;;;;;;5134707;27;19919;-62
2022/01/24 13:58:00;;;;;;;32.85;20.10;;;5.60;99.90;;;;;;5135132;27;20043;-62
2022/01/24 14:00:27;;;;;;;34.65;20.73;;;5.60;99.90;;;;;;5135824;27;20047;-63
2022/01/24 14:03:10;;;;;;;34.33;21.17;;;5.60;99.90;;;;;;5099617;27;20041;-61
2022/01/24 14:05:36;;;;;;;35.35;21.67;;;5.60;99.90;;;;;;5135624;27;20065;-62
2022/01/24 14:08:17;;;;;;;31.95;20.17;;;5.60;99.90;;;;;;5125851;27;20044;-62
2022/01/24 14:10:43;;;;;;;32.85;20.13;;;5.50;99.90;;;;;;5124339;27;20047;-62
2022/01/24 14:13:10;;;;;;;31.17;19.05;;;5.50;99.90;;;;;;5115278;27;20041;-62
2022/01/24 14:20:47;;;;;;;36.13;20.80;;;5.50;99.90;;;;;;5114870;28;20043;-63
2022/01/24 14:23:35;;;;;;;36.92;21.05;;;5.50;99.90;;;;;;5114756;28;20452;-62
2022/01/24 14:26:18;;;;;;;31.08;19.70;;;5.50;99.90;;;;;;5116820;27;20126;-62
2022/01/24 14:28:44;;;;;;;33.40;20.42;;;5.50;99.90;;;;;;5125163;27;20050;-63
2022/01/24 14:31:14;;;;;;;32.97;20.80;;;5.40;99.90;;;;;;5105859;28;20100;-63
2022/01/24 14:33:45;;;;;;;36.10;21.58;;;5.40;99.90;;;;;;5128339;27;20107;-63
2022/01/24 14:36:17;;;;;;;34.78;21.23;;;5.40;99.90;;;;;;5107883;27;20049;-63
2022/01/24 14:38:53;;;;;;;33.80;21.15;;;5.40;99.90;;;;;;5133320;27;20043;-62
2022/01/24 14:41:39;;;;;;;34.17;20.30;;;5.40;99.90;;;;;;5107282;28;20093;-62
2022/01/24 14:46:54;;;;;;;34.42;21.30;;;5.40;99.90;;;;;;5124045;27;20048;-61
2022/01/24 14:49:26;;;;;;;35.33;21.05;;;5.40;99.90;;;;;;5104476;28;20502;-61
2022/01/24 14:52:13;;;;;;;37.03;21.67;;;5.40;99.90;;;;;;5123591;28;20039;-61
2022/01/24 14:54:39;;;;;;;35.95;22.02;;;5.40;99.90;;;;;;5104568;28;20130;-60
2022/01/24 14:57:07;;;;;;;35.67;21.60;;;5.40;99.90;;;;;;5124371;27;20100;-61
2022/01/24 14:59:33;;;;;;;36.85;22.13;;;5.40;99.90;;;;;;5124036;28;20039;-61
2022/01/24 15:01:59;;;;;;;;;;;5.40;99.90;;;;;;5122947;28;20043;-61
2022/01/24 15:04:24;;;;;;;35.92;21.85;;;5.30;99.90;;;;;;5124889;28;19919;-61
2022/01/24 15:06:51;;;;;;;33.33;21.00;;;5.30;99.90;;;;;;5121399;27;20044;-63
2022/01/24 15:09:28;;;;;;;39.15;22.80;;;5.40;99.90;;;;;;5124255;28;20051;-62
2022/01/24 15:11:56;;;;;;;34.67;20.85;;;5.30;99.90;;;;;;5133134;28;20186;-62
2022/01/24 15:14:43;;;;;;;35.25;21.50;;;5.40;99.90;;;;;;5125062;28;20054;-62
2022/01/24 15:27:35;;;;;;;36.15;21.88;;;5.40;99.90;;;;;;5122746;28;20422;-61
2022/01/24 15:30:01;;;;;;;33.33;20.80;;;5.30;99.90;;;;;;5126766;27;20052;-63
2022/01/24 15:32:27;;;;;;;35.95;21.25;;;5.30;99.90;;;;;;5108774;27;20058;-63
2022/01/24 15:34:53;;;;;;;36.28;22.15;;;5.20;99.90;;;;;;5126073;27;20040;-62
2022/01/24 15:37:19;;;;;;;38.92;22.48;;;5.20;99.90;;;;;;5125671;27;20046;-62
2022/01/24 15:39:44;;;;;;;36.95;21.77;;;5.20;99.90;;;;;;5126330;27;20100;-62
2022/01/24 15:42:31;;;;;;;35.65;22.98;;;5.20;99.90;;;;;;5125792;27;20142;-64
2022/01/24 15:48:08;;;;;;;34.80;22.33;;;5.20;99.90;;;;;;5100689;28;20054;-61
2022/01/24 15:50:37;;;;;;;41.08;24.50;;;5.20;99.90;;;;;;5093463;28;20048;-61
2022/01/24 15:53:23;;;;;;;38.03;22.95;;;5.20;99.90;;;;;;5110688;28;20032;-63
2022/01/24 15:57:39;;;;;;;40.78;23.27;;;5.20;99.90;;;;;;5061248;28;20149;-62
2022/01/24 15:58:41;;;;;;;37.15;22.13;;;5.20;99.90;;;;;;5072265;28;20488;-62
2022/01/24 16:01:06;;;;;;;38.95;22.60;;;5.10;99.90;;;;;;5077248;28;20052;-62
2022/01/24 16:03:32;;;;;;;40.95;23.90;;;5.20;99.90;;;;;;5077691;28;20040;-62
2022/01/24 16:05:58;;;;;;;35.60;23.15;;;5.20;99.90;;;;;;5093264;28;20044;-64
2022/01/24 16:08:23;;;;;;;40.33;23.52;;;5.10;99.90;;;;;;5066795;28;20550;-62
2022/01/24 16:10:50;;;;;;;39.15;22.80;;;5.10;99.90;;;;;;5085980;28;20036;-63
2022/01/24 16:13:17;;;;;;;;;;;5.10;99.90;;;;;;5086670;28;20094;-62
2022/01/24 16:15:43;;;;;;;;;;;5.10;99.90;;;;;;5084945;28;19920;-62
2022/01/24 16:18:13;;;;;;;37.25;22.90;;;5.10;99.90;;;;;;5085524;28;19927;-62
2022/01/24 16:21:14;;;;;;;38.88;22.58;;;5.10;99.90;;;;;;5106122;28;20515;-64
2022/01/24 16:23:30;;;;;;;37.72;23.67;;;5.10;99.90;;;;;;5083704;28;20155;-61
2022/01/24 16:25:57;;;;;;;39.60;23.23;;;5.10;99.90;;;;;;5084839;28;20050;-61
2022/01/24 16:28:24;;;;;;;39.78;23.58;;;5.20;99.90;;;;;;5086358;28;20437;-61
2022/01/24 16:30:55;;;;;;;38.53;23.15;;;5.20;99.90;;;;;;5085289;28;20087;-61
2022/01/24 16:33:28;;;;;;;39.22;23.02;;;5.20;99.90;;;;;;5104625;28;20036;-62
2022/01/24 16:35:59;;;;;;;35.88;22.23;;;5.20;99.90;;;;;;5081313;28;20500;-62
2022/01/24 16:38:27;;;;;;;38.35;22.73;;;5.10;99.90;;;;;;5105191;28;20036;-62
2022/01/24 16:41:08;;;;;;;40.00;23.58;;;5.10;99.90;;;;;;5110187;28;20168;-62
2022/01/24 16:48:34;;;;;;;40.47;24.35;;;5.10;99.90;;;;;;5136508;27;20051;-62
2022/01/24 16:51:02;;;;;;;41.55;25.13;;;5.10;99.90;;;;;;5137362;27;20051;-63
2022/01/24 16:53:29;;;;;;;43.42;25.10;;;5.10;99.90;;;;;;5132713;27;20368;-62
2022/01/24 16:55:58;;;;;;;39.60;23.73;;;5.10;99.90;;;;;;5116377;28;20467;-62
2022/01/24 16:58:26;;;;;;;44.47;25.65;;;5.10;99.90;;;;;;5115695;28;20047;-62
2022/01/24 17:00:51;;;;;;;42.70;24.83;;;5.00;99.90;;;;;;5116264;28;20073;-62
2022/01/24 17:03:17;;;;;;;41.22;23.48;;;5.10;99.90;;;;;;5115641;28;20043;-62
2022/01/24 17:05:45;;;;;;;45.08;25.40;;;5.00;99.90;;;;;;5116034;28;20047;-63
2022/01/24 17:08:12;;;;;;;39.60;24.80;;;5.10;99.90;;;;;;5113552;28;20115;-63
2022/01/24 17:10:38;;;;;;;43.35;25.38;;;5.10;99.90;;;;;;5121251;27;20097;-62
2022/01/24 17:13:06;;;;;;;;;;;5.10;99.90;;;;;;5116688;28;20112;-62
2022/01/24 17:15:39;;;;;;;42.67;24.65;;;5.10;99.90;;;;;;5104987;27;19919;-62
2022/01/24 17:18:05;;;;;;;43.00;25.45;;;5.00;99.90;;;;;;5117996;27;20051;-62
2022/01/24 17:20:31;;;;;;;43.30;25.60;;;5.00;99.90;;;;;;5135910;27;20470;-63
2022/01/24 17:22:57;;;;;;;40.25;25.00;;;5.10;99.90;;;;;;5136351;27;20513;-62
2022/01/24 17:25:23;;;;;;;40.67;23.40;;;5.00;99.90;;;;;;5135970;27;20120;-62
2022/01/24 17:27:49;;;;;;;40.30;24.92;;;5.00;99.90;;;;;;5133385;27;20043;-62
2022/01/24 17:30:16;;;;;;;38.88;23.85;;;5.00;99.90;;;;;;5134629;27;20043;-62
2022/01/24 17:32:44;;;;;;;41.13;25.10;;;5.00;99.90;;;;;;5118412;27;20062;-62
2022/01/24 17:35:11;;;;;;;45.75;26.83;;;5.10;99.90;;;;;;5136291;27;20367;-63
2022/01/24 17:37:37;;;;;;;42.13;24.85;;;4.90;99.90;;;;;;5124144;27;20126;-62
2022/01/24 17:40:06;;;;;;;43.55;25.63;;;5.00;99.90;;;;;;5096494;28;20043;-63
2022/01/24 17:42:31;;;;;;;39.40;24.08;;;5.00;99.90;;;;;;5119702;27;20038;-63
2022/01/24 17:44:57;;;;;;;45.63;26.48;;;5.00;99.90;;;;;;5114598;28;20051;-62
2022/01/24 17:47:23;;;;;;;43.92;24.88;;;5.00;99.90;;;;;;5096222;28;20047;-62
2022/01/24 17:49:48;;;;;;;39.65;23.92;;;5.00;99.90;;;;;;5115558;27;20038;-62
2022/01/24 17:52:15;;;;;;;39.25;23.00;;;5.00;99.90;;;;;;5115343;27;20422;-63
2022/01/24 17:54:42;;;;;;;41.95;23.77;;;5.00;99.90;;;;;;5115774;27;20047;-63
2022/01/24 17:57:07;;;;;;;;;;;5.00;99.90;;;;;;5114010;28;20035;-61
2022/01/24 17:59:33;;;;;;;41.55;24.25;;;5.00;99.90;;;;;;5113234;28;20003;-61
2022/01/24 18:01:59;;;;;;;46.10;25.52;;;5.00;99.90;;;;;;5113150;28;20058;-61
2022/01/24 18:04:27;;;;;;;44.95;27.33;;;5.00;99.90;;;;;;5113368;28;20069;-62
2022/01/24 18:06:55;;;;;;;45.80;28.00;;;5.10;99.90;;;;;;5113855;28;20073;-62
2022/01/24 18:09:21;;;;;;;47.15;26.63;;;5.00;99.90;;;;;;5113751;28;20044;-62
2022/01/24 18:11:47;;;;;;;42.28;25.45;;;5.00;99.90;;;;;;5111153;28;20047;-60
2022/01/24 18:14:13;;;;;;;46.45;26.63;;;5.00;99.90;;;;;;5114504;28;20048;-62
2022/01/24 18:16:39;;;;;;;45.95;26.23;;;4.90;99.90;;;;;;5119119;27;20454;-62
2022/01/24 18:19:05;;;;;;;45.00;25.80;;;5.00;99.90;;;;;;5119639;27;20054;-61
2022/01/24 18:21:32;;;;;;;;;;;5.00;99.90;;;;;;5123155;27;20388;-62
2022/01/24 18:23:58;;;;;;;46.60;27.30;;;5.00;99.90;;;;;;5121451;27;20374;-61
2022/01/24 18:26:24;;;;;;;;;;;5.00;99.90;;;;;;5126302;27;20042;-61
2022/01/24 18:28:50;;;;;;;49.08;28.23;;;4.90;99.90;;;;;;5127985;27;19945;-63
2022/01/24 18:31:16;;;;;;;;;;;4.90;99.90;;;;;;5134702;27;20039;-62
2022/01/24 18:33:42;;;;;;;50.83;29.95;;;4.90;99.90;;;;;;5133823;27;19925;-62
2022/01/24 18:36:07;;;;;;;51.42;29.05;;;4.80;99.90;;;;;;5134452;27;20047;-62
2022/01/24 18:38:33;;;;;;;54.17;31.00;;;4.80;99.90;;;;;;5134462;27;20046;-62
2022/01/24 18:40:59;;;;;;;52.80;31.27;;;4.80;99.90;;;;;;5134589;27;20062;-62
2022/01/24 18:43:28;;;;;;;54.15;30.77;;;4.70;99.90;;;;;;5128530;28;20062;-62
2022/01/24 18:45:55;;;;;;;58.83;32.78;;;4.70;99.90;;;;;;5113638;28;20060;-61
2022/01/24 18:48:21;;;;;;;55.78;31.48;;;4.70;99.90;;;;;;5095868;28;20138;-62
2022/01/24 18:50:47;;;;;;;55.00;31.08;;;4.70;99.90;;;;;;5113918;28;20530;-61
2022/01/24 18:53:12;;;;;;;57.88;32.92;;;4.60;99.90;;;;;;5113861;28;20176;-61
2022/01/24 18:55:38;;;;;;;54.63;31.98;;;4.70;99.90;;;;;;5114579;28;20087;-61
2022/01/24 18:58:04;;;;;;;57.45;32.72;;;4.70;99.90;;;;;;5095985;28;20124;-61
2022/01/24 19:00:30;;;;;;;;;;;4.70;99.90;;;;;;5114867;28;20059;-63
2022/01/24 19:02:57;;;;;;;54.60;31.95;;;4.70;99.90;;;;;;5113840;28;20279;-61
2022/01/24 19:05:25;;;;;;;59.30;34.33;;;4.70;99.90;;;;;;5099840;28;20478;-61
2022/01/24 19:07:52;;;;;;;58.30;33.03;;;4.70;99.90;;;;;;5117936;28;20122;-61
2022/01/24 19:10:19;;;;;;;61.00;33.55;;;4.70;99.90;;;;;;5117994;28;20044;-61
2022/01/24 19:12:46;;;;;;;61.45;33.58;;;4.70;99.90;;;;;;5118479;28;20082;-61
2022/01/24 19:15:15;;;;;;;59.22;34.40;;;4.70;99.90;;;;;;5117548;28;20473;-61
2022/01/24 19:17:45;;;;;;;59.35;33.83;;;4.70;99.90;;;;;;5117678;28;20053;-61
2022/01/24 19:26:01;;;;;;;59.67;34.00;;;4.70;99.90;;;;;;5117591;28;20510;-62
2022/01/24 19:28:31;;;;;;;57.03;32.80;;;4.70;99.90;;;;;;5117643;28;20044;-65
2022/01/24 19:30:57;;;;;;;59.97;33.67;;;4.60;99.90;;;;;;5117591;28;20047;-61
2022/01/24 19:33:46;;;;;;;55.58;33.25;;;4.70;99.90;;;;;;5117679;28;20036;-62
2022/01/24 19:36:13;;;;;;;61.97;34.40;;;4.70;99.90;;;;;;5117997;28;20052;-61
2022/01/24 19:38:40;;;;;;;59.22;33.22;;;4.70;99.90;;;;;;5099397;28;20058;-61
2022/01/24 19:41:06;;;;;;;61.75;33.88;;;4.70;99.90;;;;;;5117496;28;20051;-60
2022/01/24 19:43:32;;;;;;;59.00;33.95;;;4.70;99.90;;;;;;5116929;28;20193;-62
2022/01/24 19:45:57;;;;;;;57.97;33.45;;;4.70;99.90;;;;;;5117539;28;20124;-61
2022/01/24 19:48:27;;;;;;;60.05;34.55;;;4.70;99.90;;;;;;5117150;28;20131;-61
2022/01/24 19:50:59;;;;;;;65.38;35.22;;;4.70;99.90;;;;;;5117156;28;20130;-61
2022/01/24 19:53:25;;;;;;;61.08;32.88;;;4.70;99.90;;;;;;5120925;27;20042;-60
2022/01/24 19:56:08;;;;;;;66.72;37.30;;;4.70;99.90;;;;;;5137729;27;20445;-61
2022/01/24 19:58:39;;;;;;;67.88;36.15;;;4.80;99.90;;;;;;5138074;27;20086;-61
2022/01/24 20:01:05;;;;;;;59.35;34.45;;;4.70;99.90;;;;;;5138721;27;20146;-61
2022/01/24 20:03:37;;;;;;;61.88;37.50;;;4.70;99.90;;;;;;5137506;27;20126;-62
2022/01/24 20:06:04;;;;;;;61.35;36.03;;;4.70;99.90;;;;;;5137319;27;20046;-61
2022/01/24 20:08:30;;;;;;;64.45;35.13;;;4.70;99.90;;;;;;5119308;27;20070;-60
2022/01/24 20:10:56;;;;;;;62.13;34.83;;;4.60;99.90;;;;;;5118845;27;20161;-61
2022/01/24 20:13:22;;;;;;;63.38;36.30;;;4.60;99.90;;;;;;5116488;28;20043;-60
2022/01/24 20:15:49;;;;;;;64.82;37.40;;;4.60;99.90;;;;;;5116223;28;20048;-60
2022/01/24 20:18:15;;;;;;;66.68;35.95;;;4.60;99.90;;;;;;5116896;28;20485;-61
2022/01/24 20:20:41;;;;;;;67.32;37.45;;;4.60;99.90;;;;;;5116565;28;20047;-61
2022/01/24 20:23:07;;;;;;;62.47;34.58;;;4.50;99.90;;;;;;5116981;28;20474;-61
2022/01/24 20:25:34;;;;;;;62.25;35.42;;;4.60;99.90;;;;;;5116490;28;20112;-61
2022/01/24 20:28:00;;;;;;;62.75;35.13;;;4.50;99.90;;;;;;5115949;28;20421;-62
2022/01/24 20:30:26;;;;;;;57.80;34.30;;;4.50;99.90;;;;;;5116292;28;20044;-61
2022/01/24 20:32:52;;;;;;;66.88;38.78;;;4.50;99.90;;;;;;5116091;28;20036;-62
2022/01/24 20:35:18;;;;;;;;;;;4.50;99.90;;;;;;5116685;28;20048;-62
2022/01/24 20:37:44;;;;;;;62.95;34.55;;;4.50;99.90;;;;;;5115973;28;20280;-61
2022/01/24 20:40:13;;;;;;;59.65;35.53;;;4.40;99.90;;;;;;5116209;28;20442;-63
2022/01/24 20:42:39;;;;;;;60.58;34.97;;;4.40;99.90;;;;;;5116073;28;20040;-61
2022/01/24 20:45:07;;;;;;;68.85;35.33;;;4.40;99.90;;;;;;5116118;28;20066;-63
2022/01/24 20:47:33;;;;;;;62.50;34.38;;;4.40;99.90;;;;;;5116444;28;20054;-62
2022/01/24 20:50:00;;;;;;;59.72;34.58;;;4.40;99.90;;;;;;5098097;28;20047;-62
2022/01/24 20:52:26;;;;;;;63.08;35.10;;;4.40;99.90;;;;;;5115861;28;20101;-62
2022/01/24 20:54:52;;;;;;;59.65;33.78;;;4.40;99.90;;;;;;5113395;27;20108;-62
2022/01/24 20:57:18;;;;;;;63.03;33.83;;;4.50;99.90;;;;;;5136337;27;20043;-62
2022/01/24 20:59:44;;;;;;;61.47;35.22;;;4.40;99.90;;;;;;5105007;28;20050;-62
2022/01/24 21:02:09;;;;;;;64.13;36.78;;;4.40;99.90;;;;;;5115630;28;20048;-62
2022/01/24 21:04:35;;;;;;;61.03;35.10;;;4.40;99.90;;;;;;5115729;28;20088;-61
2022/01/24 21:07:01;;;;;;;65.70;36.92;;;4.40;99.90;;;;;;5097686;28;20063;-62
2022/01/24 21:09:27;;;;;;;60.47;35.28;;;4.30;99.90;;;;;;5115619;28;20054;-60
2022/01/24 21:12:04;;;;;;;63.58;35.30;;;4.30;99.90;;;;;;5115714;28;20047;-62
2022/01/24 21:14:31;;;;;;;62.13;34.50;;;4.30;99.90;;;;;;5115573;28;20043;-63
2022/01/24 21:16:57;;;;;;;59.38;34.17;;;4.40;99.90;;;;;;5115257;28;20055;-62
2022/01/24 21:19:23;;;;;;;;;;;4.40;99.90;;;;;;5115818;28;20077;-62
2022/01/24 21:21:48;;;;;;;64.97;34.80;;;4.30;99.90;;;;;;5097159;28;19934;-62
2022/01/24 21:24:14;;;;;;;60.80;34.70;;;4.30;99.90;;;;;;5115225;28;20042;-62
2022/01/24 21:26:40;;;;;;;57.90;34.15;;;4.40;99.90;;;;;;5112983;28;20066;-62
2022/01/24 21:29:06;;;;;;;61.90;34.92;;;4.40;99.90;;;;;;5123213;27;20081;-62
2022/01/24 21:31:31;;;;;;;61.90;34.85;;;4.40;99.90;;;;;;5124047;27;20032;-62
2022/01/24 21:36:29;;;;;;;61.17;34.30;;;4.30;99.90;;;;;;5125258;27;20539;-62
2022/01/24 21:38:55;;;;;;;64.90;35.45;;;4.30;99.90;;;;;;5120306;27;20047;-60
2022/01/24 21:41:22;;;;;;;58.80;33.92;;;4.30;99.90;;;;;;5125514;27;20398;-62
2022/01/24 21:43:48;;;;;;;64.22;34.95;;;4.30;99.90;;;;;;5125403;27;20094;-61
2022/01/24 21:46:14;;;;;;;65.60;34.63;;;4.40;99.90;;;;;;5127124;27;20404;-61
2022/01/24 21:48:40;;;;;;;60.00;33.92;;;4.40;99.90;;;;;;5123689;27;20039;-62
